La Porte, IN

7:22 AM CST on February 13, 2016 (GMT -0600)
RangeWood Subdivision-Garage Mahal | | Change Station
CLOSE
Current Station
Personal Weather Station
Location: La Porte, IN
Elevation: 820 ft
Nearby Weather Stations
Active Advisory: Winter Weather Advisory Active Notice: Public Information Statement

Elev 820 ft 41.68 °N, 86.69 °W | Updated 18 seconds ago

Snow
Snow
10.4 °F
Feels Like 1 °F
N
6.0
Wind Variable Wind from North
Gusts 9.2 mph

Today
High -- | Low -- °F
--% Chance of Precip.
Yesterday
High -- | Low -- °F
Precip. -- in
Pressure 30.51 in
Visibility 1.8 miles
Clouds Overcast 1000 ft
Windchill 1 °F
Dew Point -2 °F
Humidity 57%
Rainfall 0.00 in
Snow Depth Not available.
6:45 AM 5:17 PM
Waxing Crescent, 30% visible
METAR KPPO 131315Z AUTO 30005KT 1 3/4SM -SN OVC010 M12/M15 A3051 RMK AO2 T11161148
Pressure 30.51 in
Visibility 1.8 miles
Clouds Overcast 1000 ft
Windchill 1 °F
Dew Point -2 °F
Humidity 57%
Rainfall 0.00 in
Snow Depth Not available.
6:45 AM 5:17 PM
Waxing Crescent, 30% visible
METAR KPPO 131315Z AUTO 30005KT 1 3/4SM -SN OVC010 M12/M15 A3051 RMK AO2 T11161148

10-Day Weather Forecast

Almanac

Astronomy

Feb. 13, 2016 Rise Set
Actual Time
Civil Twilight
Nautical Twilight
Astronomical Twilight
Moon
Length of Visible Light
Length of Day
Tomorrow will be .
, % of the Moon is Illuminated

Today's Extremes

State Highs State Lows

Community

WunderPhotos

Upload Photos

1,892,547 photos uploaded!

WunderBlog® & News

Nearby

Air Quality

  Air Quality AQ Index Pollutant
Not available.

Snow Depth

Station Depth Elevation

Earthquake Activity

City Distance Mag. Time & Date
Minimum magnitude displayed is 2.5.

Coastal Water Temperatures

Place Temperature

Stations

Nearby Weather Stations

Station Location Temp. Windchill Dew Point Humidity Wind Precip. Elev Updated Type
                   

Watches & Warnings

Winter Weather Advisory
Issued: 2:20 AM CST Feb. 13, 2016 – National Weather Service

... Winter Weather Advisory remains in effect until 4 PM EST /3 PM
CST/ this afternoon...

Hazardous weather...

* lake effect snow showers will gradually diminish in coverage
   and intensity today.

* Areas of blowing and drifting snow is expected this morning.

* Additional accumulations of 1 to 3 inches expected.

* Wind chills as low as 5 below to 10 below zero expected this
   morning.

Impacts...

* snow covered slick roads and areas of blowing snow will result
   in hazardous driving conditions.

* Frostbite will be possible for anyone who is outside for
   prolonged periods this morning.

Precautionary/preparedness actions...

A Winter Weather Advisory for snow and blowing snow means that
visibilities will be limited due to a combination of falling and
blowing snow. Use caution when traveling... especially in open
areas.